<?xml version="1.0" encoding="utf-8"?>
<gpx xmlns:xsi="http://www.w3.org/2001/XMLSchema-instance" xmlns:xsd="http://www.w3.org/2001/XMLSchema" version="1.1" creator="Shapelink.com" xmlns="http://www.topografix.com/GPX/1/1" xmlns:gpxtpx="http://www.garmin.com/xmlschemas/TrackPointExtension/v1">
  <metadata>
    <name>Ejecutar 3.67 km, 2020-02-20</name>
    <desc></desc>
    <author><name>Per Rooth</name></author> 
    <time>2020-02-20T18:23:06Z</time>
  </metadata>
  <trk>
    <name>Ejecutar 3.67 km, 2020-02-20</name>
    <trkseg>
      <trkpt lat="56.894964077142" lon="14.829518408547">
        <ele>176.4</ele>
        <time>2020-02-20T18:23:06Z</time>
      </trkpt>
      <trkpt lat="56.895010093773" lon="14.829827197743">
        <ele>177.6</ele>
        <time>2020-02-20T18:23:16Z</time>
      </trkpt>
      <trkpt lat="56.895075388774" lon="14.829993746096">
        <ele>178</ele>
        <time>2020-02-20T18:23:22Z</time>
      </trkpt>
      <trkpt lat="56.895196674867" lon="14.829919482462">
        <ele>178.4</ele>
        <time>2020-02-20T18:23:30Z</time>
      </trkpt>
      <trkpt lat="56.895222239662" lon="14.829901545196">
        <ele>178.6</ele>
        <time>2020-02-20T18:23:32Z</time>
      </trkpt>
      <trkpt lat="56.89540177996" lon="14.829884697577">
        <ele>178.8</ele>
        <time>2020-02-20T18:23:42Z</time>
      </trkpt>
      <trkpt lat="56.895568328313" lon="14.829804315156">
        <ele>178</ele>
        <time>2020-02-20T18:23:50Z</time>
      </trkpt>
      <trkpt lat="56.895681316325" lon="14.829798364007">
        <ele>177.6</ele>
        <time>2020-02-20T18:23:55Z</time>
      </trkpt>
      <trkpt lat="56.895696906659" lon="14.829798447826">
        <ele>177.6</ele>
        <time>2020-02-20T18:23:56Z</time>
      </trkpt>
      <trkpt lat="56.895774942148" lon="14.829803225509">
        <ele>177.8</ele>
        <time>2020-02-20T18:24:01Z</time>
      </trkpt>
      <trkpt lat="56.895811487232" lon="14.829821078956">
        <ele>178.4</ele>
        <time>2020-02-20T18:24:03Z</time>
      </trkpt>
      <trkpt lat="56.895844847194" lon="14.829843123353">
        <ele>178.6</ele>
        <time>2020-02-20T18:24:04Z</time>
      </trkpt>
      <trkpt lat="56.895867897419" lon="14.829858965144">
        <ele>178.6</ele>
        <time>2020-02-20T18:24:05Z</time>
      </trkpt>
      <trkpt lat="56.895917937362" lon="14.829940856307">
        <ele>179.2</ele>
        <time>2020-02-20T18:24:09Z</time>
      </trkpt>
      <trkpt lat="56.895921625398" lon="14.830019310891">
        <ele>179.2</ele>
        <time>2020-02-20T18:24:13Z</time>
      </trkpt>
      <trkpt lat="56.895963953993" lon="14.830061974762">
        <ele>179.8</ele>
        <time>2020-02-20T18:24:18Z</time>
      </trkpt>
      <trkpt lat="56.895959846862" lon="14.830127605039">
        <ele>181.2</ele>
        <time>2020-02-20T18:24:21Z</time>
      </trkpt>
      <trkpt lat="56.895950040039" lon="14.830187284167">
        <ele>182.6</ele>
        <time>2020-02-20T18:24:23Z</time>
      </trkpt>
      <trkpt lat="56.89593319242" lon="14.830231121504">
        <ele>183.2</ele>
        <time>2020-02-20T18:24:25Z</time>
      </trkpt>
      <trkpt lat="56.895920284294" lon="14.83034042148">
        <ele>183.8</ele>
        <time>2020-02-20T18:24:28Z</time>
      </trkpt>
      <trkpt lat="56.895922379769" lon="14.830392724536">
        <ele>184.2</ele>
        <time>2020-02-20T18:24:30Z</time>
      </trkpt>
      <trkpt lat="56.89592313414" lon="14.830416864408">
        <ele>184.6</ele>
        <time>2020-02-20T18:24:31Z</time>
      </trkpt>
      <trkpt lat="56.895919865199" lon="14.83044268066">
        <ele>185</ele>
        <time>2020-02-20T18:24:32Z</time>
      </trkpt>
      <trkpt lat="56.895927241271" lon="14.830570169359">
        <ele>185.2</ele>
        <time>2020-02-20T18:24:37Z</time>
      </trkpt>
      <trkpt lat="56.895966636201" lon="14.830746356897">
        <ele>186</ele>
        <time>2020-02-20T18:24:42Z</time>
      </trkpt>
      <trkpt lat="56.896076103815" lon="14.831048775849">
        <ele>186</ele>
        <time>2020-02-20T18:24:51Z</time>
      </trkpt>
      <trkpt lat="56.896222954703" lon="14.831302328324">
        <ele>186.2</ele>
        <time>2020-02-20T18:24:58Z</time>
      </trkpt>
      <trkpt lat="56.896396376214" lon="14.831453705438">
        <ele>186.2</ele>
        <time>2020-02-20T18:25:06Z</time>
      </trkpt>
      <trkpt lat="56.89645789936" lon="14.831496369309">
        <ele>186.4</ele>
        <time>2020-02-20T18:25:09Z</time>
      </trkpt>
      <trkpt lat="56.89658446605" lon="14.831666773336">
        <ele>185.4</ele>
        <time>2020-02-20T18:25:16Z</time>
      </trkpt>
      <trkpt lat="56.896619418573" lon="14.83168990738">
        <ele>185</ele>
        <time>2020-02-20T18:25:18Z</time>
      </trkpt>
      <trkpt lat="56.896791666618" lon="14.831850504584">
        <ele>185</ele>
        <time>2020-02-20T18:25:27Z</time>
      </trkpt>
      <trkpt lat="56.896853189764" lon="14.831946812615">
        <ele>185.8</ele>
        <time>2020-02-20T18:25:31Z</time>
      </trkpt>
      <trkpt lat="56.896859224732" lon="14.831991739599">
        <ele>186.2</ele>
        <time>2020-02-20T18:25:33Z</time>
      </trkpt>
      <trkpt lat="56.896871043211" lon="14.832038007687">
        <ele>186.8</ele>
        <time>2020-02-20T18:25:36Z</time>
      </trkpt>
      <trkpt lat="56.89691219834" lon="14.832250405033">
        <ele>187.2</ele>
        <time>2020-02-20T18:25:53Z</time>
      </trkpt>
      <trkpt lat="56.896920496421" lon="14.832270437774">
        <ele>187.6</ele>
        <time>2020-02-20T18:25:54Z</time>
      </trkpt>
      <trkpt lat="56.896939188058" lon="14.832232803043">
        <ele>188.8</ele>
        <time>2020-02-20T18:25:57Z</time>
      </trkpt>
      <trkpt lat="56.896949413976" lon="14.832222744763">
        <ele>189</ele>
        <time>2020-02-20T18:25:58Z</time>
      </trkpt>
      <trkpt lat="56.897003309593" lon="14.832229953197">
        <ele>187.6</ele>
        <time>2020-02-20T18:26:03Z</time>
      </trkpt>
      <trkpt lat="56.897073801372" lon="14.832077821712">
        <ele>187.2</ele>
        <time>2020-02-20T18:26:08Z</time>
      </trkpt>
      <trkpt lat="56.897167930109" lon="14.831922672743">
        <ele>187</ele>
        <time>2020-02-20T18:26:16Z</time>
      </trkpt>
      <trkpt lat="56.897244624494" lon="14.831869531497">
        <ele>186.8</ele>
        <time>2020-02-20T18:26:23Z</time>
      </trkpt>
      <trkpt lat="56.89732123506" lon="14.831901382717">
        <ele>187.2</ele>
        <time>2020-02-20T18:26:28Z</time>
      </trkpt>
      <trkpt lat="56.897306231459" lon="14.831903142916">
        <ele>186.8</ele>
        <time>2020-02-20T18:26:33Z</time>
      </trkpt>
      <trkpt lat="56.897269351099" lon="14.831944381864">
        <ele>188.8</ele>
        <time>2020-02-20T18:26:36Z</time>
      </trkpt>
      <trkpt lat="56.897119063632" lon="14.832155521925">
        <ele>188.8</ele>
        <time>2020-02-20T18:26:49Z</time>
      </trkpt>
      <trkpt lat="56.897019905755" lon="14.83228502228">
        <ele>188.6</ele>
        <time>2020-02-20T18:26:56Z</time>
      </trkpt>
      <trkpt lat="56.896985623784" lon="14.832347132159">
        <ele>188.8</ele>
        <time>2020-02-20T18:26:59Z</time>
      </trkpt>
      <trkpt lat="56.89687615617" lon="14.832299355329">
        <ele>189.6</ele>
        <time>2020-02-20T18:27:06Z</time>
      </trkpt>
      <trkpt lat="56.896862409854" lon="14.832285692832">
        <ele>189.4</ele>
        <time>2020-02-20T18:27:08Z</time>
      </trkpt>
      <trkpt lat="56.896833324661" lon="14.832209836637">
        <ele>189.2</ele>
        <time>2020-02-20T18:27:11Z</time>
      </trkpt>
      <trkpt lat="56.896782530347" lon="14.83216097016">
        <ele>189.2</ele>
        <time>2020-02-20T18:27:15Z</time>
      </trkpt>
      <trkpt lat="56.896729892015" lon="14.831995427635">
        <ele>187.6</ele>
        <time>2020-02-20T18:27:19Z</time>
      </trkpt>
      <trkpt lat="56.896706506514" lon="14.831889564238">
        <ele>186.6</ele>
        <time>2020-02-20T18:27:22Z</time>
      </trkpt>
      <trkpt lat="56.896652443259" lon="14.831871710791">
        <ele>186.4</ele>
        <time>2020-02-20T18:27:24Z</time>
      </trkpt>
      <trkpt lat="56.896438285714" lon="14.831971120125">
        <ele>186.4</ele>
        <time>2020-02-20T18:27:30Z</time>
      </trkpt>
      <trkpt lat="56.896370979057" lon="14.832029541968">
        <ele>188.2</ele>
        <time>2020-02-20T18:27:32Z</time>
      </trkpt>
      <trkpt lat="56.896280370718" lon="14.832091735666">
        <ele>188.8</ele>
        <time>2020-02-20T18:27:35Z</time>
      </trkpt>
      <trkpt lat="56.896199317745" lon="14.832154767554">
        <ele>186.8</ele>
        <time>2020-02-20T18:27:38Z</time>
      </trkpt>
      <trkpt lat="56.896004690027" lon="14.83224814192">
        <ele>186.4</ele>
        <time>2020-02-20T18:27:45Z</time>
      </trkpt>
      <trkpt lat="56.895825652643" lon="14.832318382242">
        <ele>187.4</ele>
        <time>2020-02-20T18:27:51Z</time>
      </trkpt>
      <trkpt lat="56.895644603603" lon="14.83242751458">
        <ele>186.2</ele>
        <time>2020-02-20T18:27:56Z</time>
      </trkpt>
      <trkpt lat="56.895470930635" lon="14.832557685487">
        <ele>186.6</ele>
        <time>2020-02-20T18:28:02Z</time>
      </trkpt>
      <trkpt lat="56.89533891571" lon="14.832578891694">
        <ele>185.6</ele>
        <time>2020-02-20T18:28:07Z</time>
      </trkpt>
      <trkpt lat="56.895286361197" lon="14.832457354144">
        <ele>185</ele>
        <time>2020-02-20T18:28:10Z</time>
      </trkpt>
      <trkpt lat="56.895281415876" lon="14.832400273405">
        <ele>184.6</ele>
        <time>2020-02-20T18:28:11Z</time>
      </trkpt>
      <trkpt lat="56.895265322628" lon="14.832138003754">
        <ele>183.4</ele>
        <time>2020-02-20T18:28:15Z</time>
      </trkpt>
      <trkpt lat="56.895186784225" lon="14.831779426072">
        <ele>182.6</ele>
        <time>2020-02-20T18:28:20Z</time>
      </trkpt>
      <trkpt lat="56.895177647954" lon="14.831718992573">
        <ele>182.4</ele>
        <time>2020-02-20T18:28:21Z</time>
      </trkpt>
      <trkpt lat="56.895151496426" lon="14.831522017923">
        <ele>182.2</ele>
        <time>2020-02-20T18:28:24Z</time>
      </trkpt>
      <trkpt lat="56.895090392375" lon="14.831217671134">
        <ele>183.4</ele>
        <time>2020-02-20T18:28:29Z</time>
      </trkpt>
      <trkpt lat="56.895057116232" lon="14.831033856067">
        <ele>184.4</ele>
        <time>2020-02-20T18:28:32Z</time>
      </trkpt>
      <trkpt lat="56.895033227817" lon="14.830766473457">
        <ele>183.2</ele>
        <time>2020-02-20T18:28:37Z</time>
      </trkpt>
      <trkpt lat="56.895042783183" lon="14.830756834272">
        <ele>182.4</ele>
        <time>2020-02-20T18:28:40Z</time>
      </trkpt>
      <trkpt lat="56.895043705192" lon="14.830768820389">
        <ele>182</ele>
        <time>2020-02-20T18:28:41Z</time>
      </trkpt>
      <trkpt lat="56.89490640967" lon="14.831000831381">
        <ele>182.2</ele>
        <time>2020-02-20T18:28:51Z</time>
      </trkpt>
      <trkpt lat="56.894870451319" lon="14.830984319038">
        <ele>182.6</ele>
        <time>2020-02-20T18:28:54Z</time>
      </trkpt>
      <trkpt lat="56.894852346415" lon="14.830959927709">
        <ele>182.8</ele>
        <time>2020-02-20T18:28:56Z</time>
      </trkpt>
      <trkpt lat="56.894825859611" lon="14.830936961303">
        <ele>183</ele>
        <time>2020-02-20T18:28:59Z</time>
      </trkpt>
      <trkpt lat="56.8947781666" lon="14.830946851945">
        <ele>184</ele>
        <time>2020-02-20T18:29:04Z</time>
      </trkpt>
      <trkpt lat="56.894768443596" lon="14.830950456162">
        <ele>184.2</ele>
        <time>2020-02-20T18:29:05Z</time>
      </trkpt>
      <trkpt lat="56.894733993987" lon="14.830952886913">
        <ele>185.4</ele>
        <time>2020-02-20T18:29:08Z</time>
      </trkpt>
      <trkpt lat="56.894727456105" lon="14.830951378171">
        <ele>186</ele>
        <time>2020-02-20T18:29:09Z</time>
      </trkpt>
      <trkpt lat="56.894721672594" lon="14.83095146199">
        <ele>186.8</ele>
        <time>2020-02-20T18:29:10Z</time>
      </trkpt>
      <trkpt lat="56.894686133338" lon="14.830934782009">
        <ele>187.6</ele>
        <time>2020-02-20T18:29:13Z</time>
      </trkpt>
      <trkpt lat="56.894672303203" lon="14.830958670424">
        <ele>187.4</ele>
        <time>2020-02-20T18:29:15Z</time>
      </trkpt>
      <trkpt lat="56.894659730353" lon="14.830980211907">
        <ele>187</ele>
        <time>2020-02-20T18:29:17Z</time>
      </trkpt>
      <trkpt lat="56.89462896878" lon="14.831032682601">
        <ele>186.4</ele>
        <time>2020-02-20T18:29:21Z</time>
      </trkpt>
      <trkpt lat="56.894528553618" lon="14.831098061421">
        <ele>187.8</ele>
        <time>2020-02-20T18:29:27Z</time>
      </trkpt>
      <trkpt lat="56.894452697423" lon="14.831097223231">
        <ele>188</ele>
        <time>2020-02-20T18:29:30Z</time>
      </trkpt>
      <trkpt lat="56.894422103488" lon="14.831133684496">
        <ele>188</ele>
        <time>2020-02-20T18:29:32Z</time>
      </trkpt>
      <trkpt lat="56.894393353571" lon="14.831178443842">
        <ele>188</ele>
        <time>2020-02-20T18:29:35Z</time>
      </trkpt>
      <trkpt lat="56.894379691074" lon="14.831219766609">
        <ele>188</ele>
        <time>2020-02-20T18:29:38Z</time>
      </trkpt>
      <trkpt lat="56.894381618911" lon="14.831262765756">
        <ele>188</ele>
        <time>2020-02-20T18:29:41Z</time>
      </trkpt>
      <trkpt lat="56.894382205644" lon="14.831302495962">
        <ele>188.2</ele>
        <time>2020-02-20T18:29:43Z</time>
      </trkpt>
      <trkpt lat="56.894385390766" lon="14.831327725481">
        <ele>188.2</ele>
        <time>2020-02-20T18:29:45Z</time>
      </trkpt>
      <trkpt lat="56.894408440991" lon="14.831362510366">
        <ele>187</ele>
        <time>2020-02-20T18:29:49Z</time>
      </trkpt>
      <trkpt lat="56.894420008013" lon="14.831379190347">
        <ele>186.6</ele>
        <time>2020-02-20T18:29:50Z</time>
      </trkpt>
      <trkpt lat="56.894445069894" lon="14.831406934436">
        <ele>186.4</ele>
        <time>2020-02-20T18:29:52Z</time>
      </trkpt>
      <trkpt lat="56.89447725639" lon="14.831439120932">
        <ele>186</ele>
        <time>2020-02-20T18:29:54Z</time>
      </trkpt>
      <trkpt lat="56.894518830614" lon="14.831491843083">
        <ele>185.4</ele>
        <time>2020-02-20T18:29:57Z</time>
      </trkpt>
      <trkpt lat="56.89451413675" lon="14.831505673218">
        <ele>184.8</ele>
        <time>2020-02-20T18:29:58Z</time>
      </trkpt>
      <trkpt lat="56.89449569657" lon="14.831546157795">
        <ele>184.4</ele>
        <time>2020-02-20T18:30:00Z</time>
      </trkpt>
      <trkpt lat="56.894392850657" lon="14.831829130739">
        <ele>183.8</ele>
        <time>2020-02-20T18:30:09Z</time>
      </trkpt>
      <trkpt lat="56.894301571766" lon="14.832102799774">
        <ele>184.4</ele>
        <time>2020-02-20T18:30:18Z</time>
      </trkpt>
      <trkpt lat="56.894279108274" lon="14.832159126142">
        <ele>185</ele>
        <time>2020-02-20T18:30:20Z</time>
      </trkpt>
      <trkpt lat="56.89415203867" lon="14.832389460754">
        <ele>184.2</ele>
        <time>2020-02-20T18:30:28Z</time>
      </trkpt>
      <trkpt lat="56.894112308464" lon="14.832500101834">
        <ele>184</ele>
        <time>2020-02-20T18:30:37Z</time>
      </trkpt>
      <trkpt lat="56.89410426184" lon="14.832544358266">
        <ele>184</ele>
        <time>2020-02-20T18:30:39Z</time>
      </trkpt>
      <trkpt lat="56.894088922963" lon="14.83265298769">
        <ele>184</ele>
        <time>2020-02-20T18:30:44Z</time>
      </trkpt>
      <trkpt lat="56.894085737841" lon="14.832776955991">
        <ele>185.4</ele>
        <time>2020-02-20T18:30:49Z</time>
      </trkpt>
      <trkpt lat="56.894086743669" lon="14.832802101691">
        <ele>185.6</ele>
        <time>2020-02-20T18:30:50Z</time>
      </trkpt>
      <trkpt lat="56.894086827488" lon="14.832843843553">
        <ele>186</ele>
        <time>2020-02-20T18:30:51Z</time>
      </trkpt>
      <trkpt lat="56.894106189677" lon="14.832898409722">
        <ele>186.6</ele>
        <time>2020-02-20T18:30:54Z</time>
      </trkpt>
      <trkpt lat="56.894114906853" lon="14.832920873214">
        <ele>187.6</ele>
        <time>2020-02-20T18:30:56Z</time>
      </trkpt>
      <trkpt lat="56.89411851107" lon="14.832924645069">
        <ele>188.2</ele>
        <time>2020-02-20T18:30:57Z</time>
      </trkpt>
      <trkpt lat="56.894127228246" lon="14.832923303965">
        <ele>189.2</ele>
        <time>2020-02-20T18:30:59Z</time>
      </trkpt>
      <trkpt lat="56.894139717277" lon="14.832916263169">
        <ele>189.4</ele>
        <time>2020-02-20T18:31:00Z</time>
      </trkpt>
      <trkpt lat="56.894202413889" lon="14.832976277573">
        <ele>189.8</ele>
        <time>2020-02-20T18:31:08Z</time>
      </trkpt>
      <trkpt lat="56.894194618722" lon="14.83299245464">
        <ele>190</ele>
        <time>2020-02-20T18:31:09Z</time>
      </trkpt>
      <trkpt lat="56.894156481077" lon="14.833084906997">
        <ele>189.2</ele>
        <time>2020-02-20T18:31:13Z</time>
      </trkpt>
      <trkpt lat="56.894144578779" lon="14.833130169257">
        <ele>188</ele>
        <time>2020-02-20T18:31:15Z</time>
      </trkpt>
      <trkpt lat="56.894145081693" lon="14.833167384893">
        <ele>187.4</ele>
        <time>2020-02-20T18:31:17Z</time>
      </trkpt>
      <trkpt lat="56.894142986218" lon="14.833208120927">
        <ele>187.2</ele>
        <time>2020-02-20T18:31:19Z</time>
      </trkpt>
      <trkpt lat="56.894146674254" lon="14.833287078425">
        <ele>187.2</ele>
        <time>2020-02-20T18:31:21Z</time>
      </trkpt>
      <trkpt lat="56.894181040044" lon="14.833391097804">
        <ele>187.4</ele>
        <time>2020-02-20T18:31:24Z</time>
      </trkpt>
      <trkpt lat="56.894241138267" lon="14.833431079467">
        <ele>188</ele>
        <time>2020-02-20T18:31:28Z</time>
      </trkpt>
      <trkpt lat="56.894251615642" lon="14.833444406688">
        <ele>188</ele>
        <time>2020-02-20T18:31:30Z</time>
      </trkpt>
      <trkpt lat="56.894267457433" lon="14.833494781907">
        <ele>187.2</ele>
        <time>2020-02-20T18:31:34Z</time>
      </trkpt>
      <trkpt lat="56.894293441323" lon="14.83353811633">
        <ele>186.8</ele>
        <time>2020-02-20T18:31:37Z</time>
      </trkpt>
      <trkpt lat="56.894296794083" lon="14.833555299225">
        <ele>186.8</ele>
        <time>2020-02-20T18:31:39Z</time>
      </trkpt>
      <trkpt lat="56.894346750207" lon="14.833689744901">
        <ele>187.4</ele>
        <time>2020-02-20T18:31:48Z</time>
      </trkpt>
      <trkpt lat="56.89436829169" lon="14.833753447341">
        <ele>188</ele>
        <time>2020-02-20T18:31:50Z</time>
      </trkpt>
      <trkpt lat="56.894397712159" lon="14.833827040423">
        <ele>189.2</ele>
        <time>2020-02-20T18:31:53Z</time>
      </trkpt>
      <trkpt lat="56.89441690671" lon="14.833850174467">
        <ele>189.4</ele>
        <time>2020-02-20T18:31:55Z</time>
      </trkpt>
      <trkpt lat="56.894435179252" lon="14.833910859423">
        <ele>189.4</ele>
        <time>2020-02-20T18:31:59Z</time>
      </trkpt>
      <trkpt lat="56.894433921967" lon="14.833938519693">
        <ele>189.4</ele>
        <time>2020-02-20T18:32:00Z</time>
      </trkpt>
      <trkpt lat="56.894446746274" lon="14.834084364753">
        <ele>189.8</ele>
        <time>2020-02-20T18:32:04Z</time>
      </trkpt>
      <trkpt lat="56.894481950254" lon="14.834145217347">
        <ele>190.2</ele>
        <time>2020-02-20T18:32:06Z</time>
      </trkpt>
      <trkpt lat="56.89452922417" lon="14.834188300313">
        <ele>190.2</ele>
        <time>2020-02-20T18:32:11Z</time>
      </trkpt>
      <trkpt lat="56.894556297707" lon="14.834221408818">
        <ele>189.2</ele>
        <time>2020-02-20T18:32:20Z</time>
      </trkpt>
      <trkpt lat="56.894625280744" lon="14.834322075437">
        <ele>188</ele>
        <time>2020-02-20T18:32:25Z</time>
      </trkpt>
      <trkpt lat="56.894645229666" lon="14.834399440374">
        <ele>187.8</ele>
        <time>2020-02-20T18:32:28Z</time>
      </trkpt>
      <trkpt lat="56.894673057574" lon="14.834553834972">
        <ele>187.2</ele>
        <time>2020-02-20T18:32:34Z</time>
      </trkpt>
      <trkpt lat="56.894712620142" lon="14.8346302779">
        <ele>187.4</ele>
        <time>2020-02-20T18:32:36Z</time>
      </trkpt>
      <trkpt lat="56.894753942909" lon="14.834724909551">
        <ele>187.8</ele>
        <time>2020-02-20T18:32:39Z</time>
      </trkpt>
      <trkpt lat="56.894867517654" lon="14.834978797302">
        <ele>188.4</ele>
        <time>2020-02-20T18:32:52Z</time>
      </trkpt>
      <trkpt lat="56.894923760203" lon="14.83505691661">
        <ele>188</ele>
        <time>2020-02-20T18:32:56Z</time>
      </trkpt>
      <trkpt lat="56.89498436134" lon="14.835211478846">
        <ele>189.2</ele>
        <time>2020-02-20T18:33:02Z</time>
      </trkpt>
      <trkpt lat="56.895003304434" lon="14.835309044162">
        <ele>189.4</ele>
        <time>2020-02-20T18:33:06Z</time>
      </trkpt>
      <trkpt lat="56.894930381904" lon="14.835515993273">
        <ele>188.4</ele>
        <time>2020-02-20T18:33:12Z</time>
      </trkpt>
      <trkpt lat="56.894768611234" lon="14.835695114476">
        <ele>189</ele>
        <time>2020-02-20T18:33:21Z</time>
      </trkpt>
      <trkpt lat="56.894736173281" lon="14.835772479413">
        <ele>189.2</ele>
        <time>2020-02-20T18:33:24Z</time>
      </trkpt>
      <trkpt lat="56.894659478896" lon="14.835836768586">
        <ele>189.8</ele>
        <time>2020-02-20T18:33:29Z</time>
      </trkpt>
      <trkpt lat="56.894610444781" lon="14.835782453874">
        <ele>190.2</ele>
        <time>2020-02-20T18:33:33Z</time>
      </trkpt>
      <trkpt lat="56.894598542483" lon="14.835719841081">
        <ele>190.8</ele>
        <time>2020-02-20T18:33:36Z</time>
      </trkpt>
      <trkpt lat="56.894566858901" lon="14.835765857712">
        <ele>190.6</ele>
        <time>2020-02-20T18:33:52Z</time>
      </trkpt>
      <trkpt lat="56.894492595267" lon="14.835840875717">
        <ele>190.2</ele>
        <time>2020-02-20T18:34:06Z</time>
      </trkpt>
      <trkpt lat="56.894483878091" lon="14.835956210661">
        <ele>189.6</ele>
        <time>2020-02-20T18:34:10Z</time>
      </trkpt>
      <trkpt lat="56.894490332154" lon="14.835965095475">
        <ele>189.2</ele>
        <time>2020-02-20T18:34:13Z</time>
      </trkpt>
      <trkpt lat="56.894568116186" lon="14.835931651694">
        <ele>189.8</ele>
        <time>2020-02-20T18:34:21Z</time>
      </trkpt>
      <trkpt lat="56.894759139687" lon="14.835885132149">
        <ele>188.8</ele>
        <time>2020-02-20T18:34:31Z</time>
      </trkpt>
      <trkpt lat="56.89489048406" lon="14.836127704335">
        <ele>189.8</ele>
        <time>2020-02-20T18:34:42Z</time>
      </trkpt>
      <trkpt lat="56.894964663875" lon="14.836298276">
        <ele>190</ele>
        <time>2020-02-20T18:34:47Z</time>
      </trkpt>
      <trkpt lat="56.894990396308" lon="14.836337000378">
        <ele>190.2</ele>
        <time>2020-02-20T18:34:49Z</time>
      </trkpt>
      <trkpt lat="56.895145461458" lon="14.836544871498">
        <ele>191</ele>
        <time>2020-02-20T18:34:57Z</time>
      </trkpt>
      <trkpt lat="56.895174714289" lon="14.836590049939">
        <ele>191.2</ele>
        <time>2020-02-20T18:34:58Z</time>
      </trkpt>
      <trkpt lat="56.895217797255" lon="14.836647382135">
        <ele>192</ele>
        <time>2020-02-20T18:35:00Z</time>
      </trkpt>
      <trkpt lat="56.895237075625" lon="14.836677389337">
        <ele>192.4</ele>
        <time>2020-02-20T18:35:01Z</time>
      </trkpt>
      <trkpt lat="56.895303963187" lon="14.836767075667">
        <ele>193.6</ele>
        <time>2020-02-20T18:35:04Z</time>
      </trkpt>
      <trkpt lat="56.89540764729" lon="14.836894061452">
        <ele>194</ele>
        <time>2020-02-20T18:35:12Z</time>
      </trkpt>
      <trkpt lat="56.895533711066" lon="14.837173011084">
        <ele>194.2</ele>
        <time>2020-02-20T18:35:21Z</time>
      </trkpt>
      <trkpt lat="56.895672263873" lon="14.837451876897">
        <ele>192.8</ele>
        <time>2020-02-20T18:35:29Z</time>
      </trkpt>
      <trkpt lat="56.895694978822" lon="14.837483309022">
        <ele>192.6</ele>
        <time>2020-02-20T18:35:30Z</time>
      </trkpt>
      <trkpt lat="56.895794723432" lon="14.837655724705">
        <ele>191.6</ele>
        <time>2020-02-20T18:35:37Z</time>
      </trkpt>
      <trkpt lat="56.895850379248" lon="14.837683049699">
        <ele>191.2</ele>
        <time>2020-02-20T18:35:41Z</time>
      </trkpt>
      <trkpt lat="56.895885247952" lon="14.837697550386">
        <ele>190.8</ele>
        <time>2020-02-20T18:35:45Z</time>
      </trkpt>
      <trkpt lat="56.895924391425" lon="14.837688749391">
        <ele>190.8</ele>
        <time>2020-02-20T18:35:48Z</time>
      </trkpt>
      <trkpt lat="56.89595666174" lon="14.837691850694">
        <ele>191</ele>
        <time>2020-02-20T18:35:51Z</time>
      </trkpt>
      <trkpt lat="56.895984405829" lon="14.837754044392">
        <ele>191.2</ele>
        <time>2020-02-20T18:35:55Z</time>
      </trkpt>
      <trkpt lat="56.895999157973" lon="14.837780950291">
        <ele>190.6</ele>
        <time>2020-02-20T18:35:59Z</time>
      </trkpt>
      <trkpt lat="56.896009048615" lon="14.837788074906">
        <ele>190.4</ele>
        <time>2020-02-20T18:36:00Z</time>
      </trkpt>
      <trkpt lat="56.896013491022" lon="14.837800899213">
        <ele>190.4</ele>
        <time>2020-02-20T18:36:01Z</time>
      </trkpt>
      <trkpt lat="56.896017262877" lon="14.837830906415">
        <ele>190.2</ele>
        <time>2020-02-20T18:36:03Z</time>
      </trkpt>
      <trkpt lat="56.896033942858" lon="14.837939871115">
        <ele>190</ele>
        <time>2020-02-20T18:36:06Z</time>
      </trkpt>
      <trkpt lat="56.896047772993" lon="14.838027713427">
        <ele>190.2</ele>
        <time>2020-02-20T18:36:09Z</time>
      </trkpt>
      <trkpt lat="56.896062106042" lon="14.838217479643">
        <ele>189.4</ele>
        <time>2020-02-20T18:36:14Z</time>
      </trkpt>
      <trkpt lat="56.896140560626" lon="14.838154950669">
        <ele>190</ele>
        <time>2020-02-20T18:36:28Z</time>
      </trkpt>
      <trkpt lat="56.896174088226" lon="14.838130056426">
        <ele>191</ele>
        <time>2020-02-20T18:36:30Z</time>
      </trkpt>
      <trkpt lat="56.896355053447" lon="14.838132151901">
        <ele>190.2</ele>
        <time>2020-02-20T18:36:41Z</time>
      </trkpt>
      <trkpt lat="56.896395370386" lon="14.838126284571">
        <ele>191.4</ele>
        <time>2020-02-20T18:36:44Z</time>
      </trkpt>
      <trkpt lat="56.896414481118" lon="14.838117567395">
        <ele>192.2</ele>
        <time>2020-02-20T18:36:46Z</time>
      </trkpt>
      <trkpt lat="56.896438453352" lon="14.838127290399">
        <ele>193.8</ele>
        <time>2020-02-20T18:36:48Z</time>
      </trkpt>
      <trkpt lat="56.896460749206" lon="14.838134331195">
        <ele>194.8</ele>
        <time>2020-02-20T18:36:50Z</time>
      </trkpt>
      <trkpt lat="56.89653585103" lon="14.838118070309">
        <ele>195.4</ele>
        <time>2020-02-20T18:36:54Z</time>
      </trkpt>
      <trkpt lat="56.896576754702" lon="14.838093176066">
        <ele>196</ele>
        <time>2020-02-20T18:36:56Z</time>
      </trkpt>
      <trkpt lat="56.896639032219" lon="14.838031820558">
        <ele>196.2</ele>
        <time>2020-02-20T18:37:02Z</time>
      </trkpt>
      <trkpt lat="56.896687898696" lon="14.838003489736">
        <ele>196</ele>
        <time>2020-02-20T18:37:05Z</time>
      </trkpt>
      <trkpt lat="56.896712206206" lon="14.837970716507">
        <ele>195.8</ele>
        <time>2020-02-20T18:37:07Z</time>
      </trkpt>
      <trkpt lat="56.896727545083" lon="14.837947247187">
        <ele>195.2</ele>
        <time>2020-02-20T18:37:09Z</time>
      </trkpt>
      <trkpt lat="56.896750930584" lon="14.837907014067">
        <ele>194.8</ele>
        <time>2020-02-20T18:37:11Z</time>
      </trkpt>
      <trkpt lat="56.896767945841" lon="14.837854878649">
        <ele>194.6</ele>
        <time>2020-02-20T18:37:13Z</time>
      </trkpt>
      <trkpt lat="56.896826870598" lon="14.837715571471">
        <ele>194.6</ele>
        <time>2020-02-20T18:37:19Z</time>
      </trkpt>
      <trkpt lat="56.896857045438" lon="14.837633009756">
        <ele>194.4</ele>
        <time>2020-02-20T18:37:23Z</time>
      </trkpt>
      <trkpt lat="56.896952934374" lon="14.83757148661">
        <ele>193.8</ele>
        <time>2020-02-20T18:37:28Z</time>
      </trkpt>
      <trkpt lat="56.897031053682" lon="14.837544413073">
        <ele>193.2</ele>
        <time>2020-02-20T18:37:33Z</time>
      </trkpt>
      <trkpt lat="56.897073466096" lon="14.837330255528">
        <ele>193.2</ele>
        <time>2020-02-20T18:37:43Z</time>
      </trkpt>
      <trkpt lat="56.897098108882" lon="14.837246687985">
        <ele>193.4</ele>
        <time>2020-02-20T18:37:45Z</time>
      </trkpt>
      <trkpt lat="56.897099701443" lon="14.837189355789">
        <ele>193.8</ele>
        <time>2020-02-20T18:37:48Z</time>
      </trkpt>
      <trkpt lat="56.897078914331" lon="14.83715071523">
        <ele>194.4</ele>
        <time>2020-02-20T18:37:50Z</time>
      </trkpt>
      <trkpt lat="56.897060222694" lon="14.83711467306">
        <ele>195</ele>
        <time>2020-02-20T18:37:52Z</time>
      </trkpt>
      <trkpt lat="56.897037843021" lon="14.837009396396">
        <ele>195.4</ele>
        <time>2020-02-20T18:37:57Z</time>
      </trkpt>
      <trkpt lat="56.897049912957" lon="14.836787443684">
        <ele>194.6</ele>
        <time>2020-02-20T18:38:04Z</time>
      </trkpt>
      <trkpt lat="56.897025521628" lon="14.836733128972">
        <ele>193.4</ele>
        <time>2020-02-20T18:38:06Z</time>
      </trkpt>
      <trkpt lat="56.897026611275" lon="14.83670731272">
        <ele>192.2</ele>
        <time>2020-02-20T18:38:08Z</time>
      </trkpt>
      <trkpt lat="56.897038597392" lon="14.836686860884">
        <ele>191.2</ele>
        <time>2020-02-20T18:38:13Z</time>
      </trkpt>
      <trkpt lat="56.897092660647" lon="14.836388046149">
        <ele>191.8</ele>
        <time>2020-02-20T18:38:29Z</time>
      </trkpt>
      <trkpt lat="56.897100958728" lon="14.836337335654">
        <ele>192.2</ele>
        <time>2020-02-20T18:38:30Z</time>
      </trkpt>
      <trkpt lat="56.897124176591" lon="14.836205991281">
        <ele>192.8</ele>
        <time>2020-02-20T18:38:33Z</time>
      </trkpt>
      <trkpt lat="56.897135240699" lon="14.83614572542">
        <ele>192.8</ele>
        <time>2020-02-20T18:38:35Z</time>
      </trkpt>
      <trkpt lat="56.897142030038" lon="14.836029803743">
        <ele>192.2</ele>
        <time>2020-02-20T18:38:38Z</time>
      </trkpt>
      <trkpt lat="56.897179161855" lon="14.835919581758">
        <ele>192</ele>
        <time>2020-02-20T18:38:41Z</time>
      </trkpt>
      <trkpt lat="56.897333221177" lon="14.83575009974">
        <ele>191.6</ele>
        <time>2020-02-20T18:38:49Z</time>
      </trkpt>
      <trkpt lat="56.897399773463" lon="14.835682541626">
        <ele>192.2</ele>
        <time>2020-02-20T18:38:52Z</time>
      </trkpt>
      <trkpt lat="56.897574703716" lon="14.835628143095">
        <ele>191.8</ele>
        <time>2020-02-20T18:38:58Z</time>
      </trkpt>
      <trkpt lat="56.897749131055" lon="14.835576175315">
        <ele>191.4</ele>
        <time>2020-02-20T18:39:02Z</time>
      </trkpt>
      <trkpt lat="56.897795482962" lon="14.835547425398">
        <ele>191.2</ele>
        <time>2020-02-20T18:39:03Z</time>
      </trkpt>
      <trkpt lat="56.897978292201" lon="14.835407028573">
        <ele>190.4</ele>
        <time>2020-02-20T18:39:08Z</time>
      </trkpt>
      <trkpt lat="56.898007628851" lon="14.835377775742">
        <ele>190</ele>
        <time>2020-02-20T18:39:09Z</time>
      </trkpt>
      <trkpt lat="56.898126903288" lon="14.835242324238">
        <ele>189</ele>
        <time>2020-02-20T18:39:13Z</time>
      </trkpt>
      <trkpt lat="56.898206615157" lon="14.835142579628">
        <ele>187.6</ele>
        <time>2020-02-20T18:39:16Z</time>
      </trkpt>
      <trkpt lat="56.898365368343" lon="14.83494459915">
        <ele>187.6</ele>
        <time>2020-02-20T18:39:22Z</time>
      </trkpt>
      <trkpt lat="56.898391016957" lon="14.834891457904">
        <ele>187.4</ele>
        <time>2020-02-20T18:39:23Z</time>
      </trkpt>
      <trkpt lat="56.898395627002" lon="14.834695740539">
        <ele>189</ele>
        <time>2020-02-20T18:39:27Z</time>
      </trkpt>
      <trkpt lat="56.898382299781" lon="14.834538160819">
        <ele>190</ele>
        <time>2020-02-20T18:39:32Z</time>
      </trkpt>
      <trkpt lat="56.89839160369" lon="14.834435734001">
        <ele>191.4</ele>
        <time>2020-02-20T18:39:35Z</time>
      </trkpt>
      <trkpt lat="56.89839579464" lon="14.834388124809">
        <ele>191.6</ele>
        <time>2020-02-20T18:39:36Z</time>
      </trkpt>
      <trkpt lat="56.89844860061" lon="14.834024685625">
        <ele>191.8</ele>
        <time>2020-02-20T18:39:42Z</time>
      </trkpt>
      <trkpt lat="56.898542394071" lon="14.833729810383">
        <ele>191.8</ele>
        <time>2020-02-20T18:39:48Z</time>
      </trkpt>
      <trkpt lat="56.898551614161" lon="14.833357234928">
        <ele>191.6</ele>
        <time>2020-02-20T18:39:55Z</time>
      </trkpt>
      <trkpt lat="56.898563935554" lon="14.833029670276">
        <ele>191.8</ele>
        <time>2020-02-20T18:40:02Z</time>
      </trkpt>
      <trkpt lat="56.898576508404" lon="14.832998405789">
        <ele>191.4</ele>
        <time>2020-02-20T18:40:03Z</time>
      </trkpt>
      <trkpt lat="56.898637947731" lon="14.832753151395">
        <ele>190.4</ele>
        <time>2020-02-20T18:40:09Z</time>
      </trkpt>
      <trkpt lat="56.898703075094" lon="14.832399770491">
        <ele>189.8</ele>
        <time>2020-02-20T18:40:16Z</time>
      </trkpt>
      <trkpt lat="56.898766358439" lon="14.832111936045">
        <ele>190.2</ele>
        <time>2020-02-20T18:40:22Z</time>
      </trkpt>
      <trkpt lat="56.898899630649" lon="14.831837931734">
        <ele>190.6</ele>
        <time>2020-02-20T18:40:28Z</time>
      </trkpt>
      <trkpt lat="56.8989942623" lon="14.831550684021">
        <ele>189.8</ele>
        <time>2020-02-20T18:40:34Z</time>
      </trkpt>
      <trkpt lat="56.899067855382" lon="14.831289504017">
        <ele>189.4</ele>
        <time>2020-02-20T18:40:39Z</time>
      </trkpt>
      <trkpt lat="56.899156535884" lon="14.831134019772">
        <ele>188.2</ele>
        <time>2020-02-20T18:40:44Z</time>
      </trkpt>
      <trkpt lat="56.899226860025" lon="14.83111490904">
        <ele>187.8</ele>
        <time>2020-02-20T18:40:48Z</time>
      </trkpt>
      <trkpt lat="56.899341775874" lon="14.830971243274">
        <ele>189.2</ele>
        <time>2020-02-20T18:40:55Z</time>
      </trkpt>
      <trkpt lat="56.899440598475" lon="14.830912821431">
        <ele>189.8</ele>
        <time>2020-02-20T18:41:00Z</time>
      </trkpt>
      <trkpt lat="56.899566159337" lon="14.830770748226">
        <ele>190.4</ele>
        <time>2020-02-20T18:41:07Z</time>
      </trkpt>
      <trkpt lat="56.899616869832" lon="14.830719450998">
        <ele>190.6</ele>
        <time>2020-02-20T18:41:10Z</time>
      </trkpt>
      <trkpt lat="56.89964469774" lon="14.83068575576">
        <ele>190.8</ele>
        <time>2020-02-20T18:41:13Z</time>
      </trkpt>
      <trkpt lat="56.899690546733" lon="14.830621550406">
        <ele>190.6</ele>
        <time>2020-02-20T18:41:16Z</time>
      </trkpt>
      <trkpt lat="56.899747711291" lon="14.830533037542">
        <ele>190.4</ele>
        <time>2020-02-20T18:41:20Z</time>
      </trkpt>
      <trkpt lat="56.899842929675" lon="14.830389707052">
        <ele>189</ele>
        <time>2020-02-20T18:41:25Z</time>
      </trkpt>
      <trkpt lat="56.899942171371" lon="14.830109835411">
        <ele>188.2</ele>
        <time>2020-02-20T18:41:35Z</time>
      </trkpt>
      <trkpt lat="56.899949547443" lon="14.830074463793">
        <ele>188</ele>
        <time>2020-02-20T18:41:36Z</time>
      </trkpt>
      <trkpt lat="56.899967149433" lon="14.829949070569">
        <ele>187.4</ele>
        <time>2020-02-20T18:41:41Z</time>
      </trkpt>
      <trkpt lat="56.899979889921" lon="14.829924092507">
        <ele>187</ele>
        <time>2020-02-20T18:41:43Z</time>
      </trkpt>
      <trkpt lat="56.899997491911" lon="14.829902970119">
        <ele>186.2</ele>
        <time>2020-02-20T18:41:45Z</time>
      </trkpt>
      <trkpt lat="56.900004616526" lon="14.829886876871">
        <ele>185.8</ele>
        <time>2020-02-20T18:41:46Z</time>
      </trkpt>
      <trkpt lat="56.900028421122" lon="14.829821749508">
        <ele>185.2</ele>
        <time>2020-02-20T18:41:48Z</time>
      </trkpt>
      <trkpt lat="56.900028756398" lon="14.82973943925">
        <ele>184.8</ele>
        <time>2020-02-20T18:41:50Z</time>
      </trkpt>
      <trkpt lat="56.899998162463" lon="14.829515726339">
        <ele>183.4</ele>
        <time>2020-02-20T18:41:53Z</time>
      </trkpt>
      <trkpt lat="56.899928089779" lon="14.829360661189">
        <ele>182.2</ele>
        <time>2020-02-20T18:41:56Z</time>
      </trkpt>
      <trkpt lat="56.899833961042" lon="14.829188999877">
        <ele>181.2</ele>
        <time>2020-02-20T18:42:01Z</time>
      </trkpt>
      <trkpt lat="56.899647966681" lon="14.829061930273">
        <ele>180.4</ele>
        <time>2020-02-20T18:42:07Z</time>
      </trkpt>
      <trkpt lat="56.899459206293" lon="14.828985487345">
        <ele>180.2</ele>
        <time>2020-02-20T18:42:12Z</time>
      </trkpt>
      <trkpt lat="56.899393827473" lon="14.82893561504">
        <ele>180</ele>
        <time>2020-02-20T18:42:14Z</time>
      </trkpt>
      <trkpt lat="56.899236666848" lon="14.828711399215">
        <ele>179.6</ele>
        <time>2020-02-20T18:42:20Z</time>
      </trkpt>
      <trkpt lat="56.899123930293" lon="14.828366148754">
        <ele>180.4</ele>
        <time>2020-02-20T18:42:28Z</time>
      </trkpt>
      <trkpt lat="56.899037931999" lon="14.82805216278">
        <ele>180.2</ele>
        <time>2020-02-20T18:42:33Z</time>
      </trkpt>
      <trkpt lat="56.898861493004" lon="14.827939342406">
        <ele>180.8</ele>
        <time>2020-02-20T18:42:43Z</time>
      </trkpt>
      <trkpt lat="56.898836263485" lon="14.827898941648">
        <ele>180.8</ele>
        <time>2020-02-20T18:42:46Z</time>
      </trkpt>
      <trkpt lat="56.898796700917" lon="14.827886536436">
        <ele>180.8</ele>
        <time>2020-02-20T18:42:49Z</time>
      </trkpt>
      <trkpt lat="56.898758647091" lon="14.82788201021">
        <ele>181</ele>
        <time>2020-02-20T18:42:52Z</time>
      </trkpt>
      <trkpt lat="56.8987176596" lon="14.827906150082">
        <ele>180.6</ele>
        <time>2020-02-20T18:42:56Z</time>
      </trkpt>
      <trkpt lat="56.898673486987" lon="14.827944287727">
        <ele>180.6</ele>
        <time>2020-02-20T18:43:00Z</time>
      </trkpt>
      <trkpt lat="56.898654040979" lon="14.827929367945">
        <ele>181.4</ele>
        <time>2020-02-20T18:43:02Z</time>
      </trkpt>
      <trkpt lat="56.89862042956" lon="14.827918220018">
        <ele>182.2</ele>
        <time>2020-02-20T18:43:05Z</time>
      </trkpt>
      <trkpt lat="56.898607186158" lon="14.827920231674">
        <ele>182.4</ele>
        <time>2020-02-20T18:43:06Z</time>
      </trkpt>
      <trkpt lat="56.898588326883" lon="14.827923835891">
        <ele>182.6</ele>
        <time>2020-02-20T18:43:08Z</time>
      </trkpt>
      <trkpt lat="56.89857349092" lon="14.827943700994">
        <ele>182.8</ele>
        <time>2020-02-20T18:43:10Z</time>
      </trkpt>
      <trkpt lat="56.898559409328" lon="14.827955016559">
        <ele>183.2</ele>
        <time>2020-02-20T18:43:12Z</time>
      </trkpt>
      <trkpt lat="56.89855421255" lon="14.827960380975">
        <ele>183.4</ele>
        <time>2020-02-20T18:43:13Z</time>
      </trkpt>
      <trkpt lat="56.898471483197" lon="14.827861306917">
        <ele>182.4</ele>
        <time>2020-02-20T18:43:27Z</time>
      </trkpt>
      <trkpt lat="56.898450947542" lon="14.827857786519">
        <ele>181.4</ele>
        <time>2020-02-20T18:43:31Z</time>
      </trkpt>
      <trkpt lat="56.898375342804" lon="14.827872371025">
        <ele>180.8</ele>
        <time>2020-02-20T18:43:39Z</time>
      </trkpt>
      <trkpt lat="56.898350951475" lon="14.827901204761">
        <ele>181.2</ele>
        <time>2020-02-20T18:43:43Z</time>
      </trkpt>
      <trkpt lat="56.898338378625" lon="14.827933223619">
        <ele>182.4</ele>
        <time>2020-02-20T18:43:50Z</time>
      </trkpt>
      <trkpt lat="56.89836226704" lon="14.827997596611">
        <ele>183.2</ele>
        <time>2020-02-20T18:43:54Z</time>
      </trkpt>
      <trkpt lat="56.898353633683" lon="14.828013103126">
        <ele>183.8</ele>
        <time>2020-02-20T18:43:56Z</time>
      </trkpt>
      <trkpt lat="56.898350783837" lon="14.82801779699">
        <ele>184</ele>
        <time>2020-02-20T18:43:57Z</time>
      </trkpt>
      <trkpt lat="56.898353130769" lon="14.828023245225">
        <ele>184.8</ele>
        <time>2020-02-20T18:43:59Z</time>
      </trkpt>
      <trkpt lat="56.898390011129" lon="14.827972870006">
        <ele>183.2</ele>
        <time>2020-02-20T18:44:08Z</time>
      </trkpt>
      <trkpt lat="56.898398728305" lon="14.827962392631">
        <ele>182.8</ele>
        <time>2020-02-20T18:44:09Z</time>
      </trkpt>
      <trkpt lat="56.898428819326" lon="14.827897852001">
        <ele>182</ele>
        <time>2020-02-20T18:44:12Z</time>
      </trkpt>
      <trkpt lat="56.898453797388" lon="14.82787279012">
        <ele>182</ele>
        <time>2020-02-20T18:44:14Z</time>
      </trkpt>
      <trkpt lat="56.898514733801" lon="14.827720407178">
        <ele>181.4</ele>
        <time>2020-02-20T18:44:20Z</time>
      </trkpt>
      <trkpt lat="56.898541136786" lon="14.827636671997">
        <ele>181.6</ele>
        <time>2020-02-20T18:44:23Z</time>
      </trkpt>
      <trkpt lat="56.898538203121" lon="14.82728940988">
        <ele>182.2</ele>
        <time>2020-02-20T18:44:29Z</time>
      </trkpt>
      <trkpt lat="56.898407110205" lon="14.827043401115">
        <ele>182</ele>
        <time>2020-02-20T18:44:34Z</time>
      </trkpt>
      <trkpt lat="56.89824408225" lon="14.826821113127">
        <ele>181.4</ele>
        <time>2020-02-20T18:44:40Z</time>
      </trkpt>
      <trkpt lat="56.898083736503" lon="14.826694043523">
        <ele>182.8</ele>
        <time>2020-02-20T18:44:45Z</time>
      </trkpt>
      <trkpt lat="56.89796412679" lon="14.826961174676">
        <ele>181.8</ele>
        <time>2020-02-20T18:44:50Z</time>
      </trkpt>
      <trkpt lat="56.897891790993" lon="14.827086986995">
        <ele>180.4</ele>
        <time>2020-02-20T18:44:53Z</time>
      </trkpt>
      <trkpt lat="56.897735636196" lon="14.827302318006">
        <ele>182</ele>
        <time>2020-02-20T18:44:59Z</time>
      </trkpt>
      <trkpt lat="56.897654415585" lon="14.827371133405">
        <ele>183.4</ele>
        <time>2020-02-20T18:45:01Z</time>
      </trkpt>
      <trkpt lat="56.897458865858" lon="14.827532065885">
        <ele>182.4</ele>
        <time>2020-02-20T18:45:06Z</time>
      </trkpt>
      <trkpt lat="56.89742517062" lon="14.827563246553">
        <ele>182.4</ele>
        <time>2020-02-20T18:45:07Z</time>
      </trkpt>
      <trkpt lat="56.897238170431" lon="14.827666511561">
        <ele>182</ele>
        <time>2020-02-20T18:45:12Z</time>
      </trkpt>
      <trkpt lat="56.897052762803" lon="14.827753683321">
        <ele>182.6</ele>
        <time>2020-02-20T18:45:17Z</time>
      </trkpt>
      <trkpt lat="56.896954191659" lon="14.827819900331">
        <ele>183.4</ele>
        <time>2020-02-20T18:45:20Z</time>
      </trkpt>
      <trkpt lat="56.89679568993" lon="14.82789877401">
        <ele>182.4</ele>
        <time>2020-02-20T18:45:25Z</time>
      </trkpt>
      <trkpt lat="56.896596452167" lon="14.827990220539">
        <ele>182</ele>
        <time>2020-02-20T18:45:32Z</time>
      </trkpt>
      <trkpt lat="56.896406350675" lon="14.828051156952">
        <ele>182.2</ele>
        <time>2020-02-20T18:45:38Z</time>
      </trkpt>
      <trkpt lat="56.896341977683" lon="14.828072782254">
        <ele>182.4</ele>
        <time>2020-02-20T18:45:40Z</time>
      </trkpt>
      <trkpt lat="56.896138632789" lon="14.828132209925">
        <ele>182</ele>
        <time>2020-02-20T18:45:47Z</time>
      </trkpt>
      <trkpt lat="56.895939227388" lon="14.828201276781">
        <ele>181.8</ele>
        <time>2020-02-20T18:45:54Z</time>
      </trkpt>
      <trkpt lat="56.895767314619" lon="14.828097676497">
        <ele>182</ele>
        <time>2020-02-20T18:46:00Z</time>
      </trkpt>
      <trkpt lat="56.895599341343" lon="14.827905395711">
        <ele>182</ele>
        <time>2020-02-20T18:46:06Z</time>
      </trkpt>
      <trkpt lat="56.895438576501" lon="14.827715713314">
        <ele>182.6</ele>
        <time>2020-02-20T18:46:12Z</time>
      </trkpt>
      <trkpt lat="56.895300945703" lon="14.827499376475">
        <ele>182.4</ele>
        <time>2020-02-20T18:46:18Z</time>
      </trkpt>
      <trkpt lat="56.895288708129" lon="14.827451012912">
        <ele>182.4</ele>
        <time>2020-02-20T18:46:19Z</time>
      </trkpt>
      <trkpt lat="56.895297928219" lon="14.827119424948">
        <ele>182</ele>
        <time>2020-02-20T18:46:25Z</time>
      </trkpt>
      <trkpt lat="56.895316619856" lon="14.826748190597">
        <ele>182</ele>
        <time>2020-02-20T18:46:32Z</time>
      </trkpt>
      <trkpt lat="56.895246463353" lon="14.826415261529">
        <ele>182.2</ele>
        <time>2020-02-20T18:46:39Z</time>
      </trkpt>
      <trkpt lat="56.89510086975" lon="14.826160954683">
        <ele>181.6</ele>
        <time>2020-02-20T18:46:46Z</time>
      </trkpt>
      <trkpt lat="56.894986708272" lon="14.826062467358">
        <ele>182.4</ele>
        <time>2020-02-20T18:46:51Z</time>
      </trkpt>
      <trkpt lat="56.894842288135" lon="14.826327586855">
        <ele>182.2</ele>
        <time>2020-02-20T18:46:58Z</time>
      </trkpt>
      <trkpt lat="56.89478068117" lon="14.826645596141">
        <ele>182.6</ele>
        <time>2020-02-20T18:47:05Z</time>
      </trkpt>
      <trkpt lat="56.89473122796" lon="14.826982799978">
        <ele>183</ele>
        <time>2020-02-20T18:47:11Z</time>
      </trkpt>
      <trkpt lat="56.894675655963" lon="14.82730114454">
        <ele>182.2</ele>
        <time>2020-02-20T18:47:17Z</time>
      </trkpt>
      <trkpt lat="56.894605248003" lon="14.827506584909">
        <ele>181.8</ele>
        <time>2020-02-20T18:47:22Z</time>
      </trkpt>
      <trkpt lat="56.894421432936" lon="14.827683191542">
        <ele>182.6</ele>
        <time>2020-02-20T18:47:30Z</time>
      </trkpt>
      <trkpt lat="56.89423837224" lon="14.827824510376">
        <ele>182.2</ele>
        <time>2020-02-20T18:47:36Z</time>
      </trkpt>
      <trkpt lat="56.894074422276" lon="14.827845046031">
        <ele>183.4</ele>
        <time>2020-02-20T18:47:41Z</time>
      </trkpt>
      <trkpt lat="56.893869065726" lon="14.827828449869">
        <ele>183.8</ele>
        <time>2020-02-20T18:47:48Z</time>
      </trkpt>
      <trkpt lat="56.893682736089" lon="14.827852338284">
        <ele>184.2</ele>
        <time>2020-02-20T18:47:55Z</time>
      </trkpt>
      <trkpt lat="56.893558767788" lon="14.827870359369">
        <ele>182.4</ele>
        <time>2020-02-20T18:48:00Z</time>
      </trkpt>
      <trkpt lat="56.893378137843" lon="14.827874298862">
        <ele>182.4</ele>
        <time>2020-02-20T18:48:06Z</time>
      </trkpt>
      <trkpt lat="56.893220390485" lon="14.827877567803">
        <ele>182.4</ele>
        <time>2020-02-20T18:48:13Z</time>
      </trkpt>
      <trkpt lat="56.893093739976" lon="14.827814703553">
        <ele>182.2</ele>
        <time>2020-02-20T18:48:21Z</time>
      </trkpt>
      <trkpt lat="56.892906739787" lon="14.827833646647">
        <ele>182.4</ele>
        <time>2020-02-20T18:48:31Z</time>
      </trkpt>
      <trkpt lat="56.89281931657" lon="14.827847225325">
        <ele>181.4</ele>
        <time>2020-02-20T18:48:35Z</time>
      </trkpt>
      <trkpt lat="56.892631813467" lon="14.827867593342">
        <ele>181</ele>
        <time>2020-02-20T18:48:45Z</time>
      </trkpt>
      <trkpt lat="56.892592753813" lon="14.827872035749">
        <ele>181</ele>
        <time>2020-02-20T18:48:47Z</time>
      </trkpt>
      <trkpt lat="56.892505582053" lon="14.827892403766">
        <ele>181.2</ele>
        <time>2020-02-20T18:48:50Z</time>
      </trkpt>
      <trkpt lat="56.892412459144" lon="14.827967254133">
        <ele>181.4</ele>
        <time>2020-02-20T18:48:56Z</time>
      </trkpt>
      <trkpt lat="56.892330148886" lon="14.827999021534">
        <ele>181.4</ele>
        <time>2020-02-20T18:49:02Z</time>
      </trkpt>
      <trkpt lat="56.892292681793" lon="14.827972786187">
        <ele>182.2</ele>
        <time>2020-02-20T18:49:05Z</time>
      </trkpt>
      <trkpt lat="56.892282539694" lon="14.827955100378">
        <ele>182.6</ele>
        <time>2020-02-20T18:49:06Z</time>
      </trkpt>
      <trkpt lat="56.892271643224" lon="14.827942611347">
        <ele>182.8</ele>
        <time>2020-02-20T18:49:07Z</time>
      </trkpt>
      <trkpt lat="56.892252951587" lon="14.827879160364">
        <ele>183.8</ele>
        <time>2020-02-20T18:49:10Z</time>
      </trkpt>
      <trkpt lat="56.892217831426" lon="14.827849488438">
        <ele>184.8</ele>
        <time>2020-02-20T18:49:13Z</time>
      </trkpt>
      <trkpt lat="56.892208024603" lon="14.827831215896">
        <ele>184.8</ele>
        <time>2020-02-20T18:49:14Z</time>
      </trkpt>
      <trkpt lat="56.89218313036" lon="14.827789222577">
        <ele>185.2</ele>
        <time>2020-02-20T18:49:16Z</time>
      </trkpt>
      <trkpt lat="56.892173826451" lon="14.827750749656">
        <ele>186</ele>
        <time>2020-02-20T18:49:18Z</time>
      </trkpt>
      <trkpt lat="56.892174077908" lon="14.827703643378">
        <ele>187.2</ele>
        <time>2020-02-20T18:49:21Z</time>
      </trkpt>
      <trkpt lat="56.892173742632" lon="14.827657207652">
        <ele>187.4</ele>
        <time>2020-02-20T18:49:23Z</time>
      </trkpt>
      <trkpt lat="56.892154548081" lon="14.827611610116">
        <ele>187.4</ele>
        <time>2020-02-20T18:49:26Z</time>
      </trkpt>
      <trkpt lat="56.892094952772" lon="14.827513038972">
        <ele>186</ele>
        <time>2020-02-20T18:49:29Z</time>
      </trkpt>
      <trkpt lat="56.89203896168" lon="14.827215816798">
        <ele>184.8</ele>
        <time>2020-02-20T18:49:34Z</time>
      </trkpt>
      <trkpt lat="56.891973247584" lon="14.827084388606">
        <ele>183.6</ele>
        <time>2020-02-20T18:49:38Z</time>
      </trkpt>
      <trkpt lat="56.891969224272" lon="14.82706309858">
        <ele>183.6</ele>
        <time>2020-02-20T18:49:39Z</time>
      </trkpt>
      <trkpt lat="56.891965787693" lon="14.8270362765">
        <ele>183.6</ele>
        <time>2020-02-20T18:49:41Z</time>
      </trkpt>
      <trkpt lat="56.891927566229" lon="14.826899400073">
        <ele>184.4</ele>
        <time>2020-02-20T18:49:52Z</time>
      </trkpt>
      <trkpt lat="56.891801502453" lon="14.826645847598">
        <ele>183.6</ele>
        <time>2020-02-20T18:50:04Z</time>
      </trkpt>
      <trkpt lat="56.891760598781" lon="14.826558005286">
        <ele>182.4</ele>
        <time>2020-02-20T18:50:06Z</time>
      </trkpt>
      <trkpt lat="56.891677869428" lon="14.826314008177">
        <ele>181.4</ele>
        <time>2020-02-20T18:50:10Z</time>
      </trkpt>
      <trkpt lat="56.89157460442" lon="14.825998513461">
        <ele>181.2</ele>
        <time>2020-02-20T18:50:15Z</time>
      </trkpt>
      <trkpt lat="56.891449797929" lon="14.825677486691">
        <ele>182.4</ele>
        <time>2020-02-20T18:50:21Z</time>
      </trkpt>
      <trkpt lat="56.891381485444" lon="14.825352604247">
        <ele>181.8</ele>
        <time>2020-02-20T18:50:27Z</time>
      </trkpt>
      <trkpt lat="56.891363715816" lon="14.825167280438">
        <ele>181.4</ele>
        <time>2020-02-20T18:50:31Z</time>
      </trkpt>
      <trkpt lat="56.891349215129" lon="14.824896796525">
        <ele>182.6</ele>
        <time>2020-02-20T18:50:36Z</time>
      </trkpt>
      <trkpt lat="56.891356255925" lon="14.824733433294">
        <ele>183.6</ele>
        <time>2020-02-20T18:50:39Z</time>
      </trkpt>
      <trkpt lat="56.891401685823" lon="14.824512402591">
        <ele>184.8</ele>
        <time>2020-02-20T18:50:43Z</time>
      </trkpt>
      <trkpt lat="56.891384922023" lon="14.824374520336">
        <ele>185.8</ele>
        <time>2020-02-20T18:50:46Z</time>
      </trkpt>
      <trkpt lat="56.89133069113" lon="14.824066904606">
        <ele>186.4</ele>
        <time>2020-02-20T18:50:51Z</time>
      </trkpt>
    </trkseg>
  </trk>
</gpx>